sensor_id;sensor_type;location;lat;lon;timestamp;temperature;humidity
1367;DHT22;16877;48.810;9.282;2023-03-01T00:02:21;15.00;38.40
1367;DHT22;16877;48.810;9.282;2023-03-01T00:04:49;15.10;38.50
1367;DHT22;16877;48.810;9.282;2023-03-01T00:07:18;15.10;38.50
1367;DHT22;16877;48.810;9.282;2023-03-01T00:09:45;15.00;38.90
1367;DHT22;16877;48.810;9.282;2023-03-01T00:12:13;15.00;38.60
1367;DHT22;16877;48.810;9.282;2023-03-01T00:14:40;15.00;38.70
1367;DHT22;16877;48.810;9.282;2023-03-01T00:17:09;15.00;38.70
1367;DHT22;16877;48.810;9.282;2023-03-01T00:19:36;15.00;38.60
1367;DHT22;16877;48.810;9.282;2023-03-01T00:22:04;15.00;38.60
1367;DHT22;16877;48.810;9.282;2023-03-01T00:24:33;14.90;38.50
1367;DHT22;16877;48.810;9.282;2023-03-01T00:27:01;15.00;38.60
1367;DHT22;16877;48.810;9.282;2023-03-01T00:29:28;14.90;38.50
1367;DHT22;16877;48.810;9.282;2023-03-01T00:31:56;14.90;38.50
1367;DHT22;16877;48.810;9.282;2023-03-01T00:34:23;14.90;38.50
1367;DHT22;16877;48.810;9.282;2023-03-01T00:36:51;14.90;38.50
1367;DHT22;16877;48.810;9.282;2023-03-01T00:39:18;14.90;38.40
1367;DHT22;16877;48.810;9.282;2023-03-01T00:41:47;14.80;38.30
1367;DHT22;16877;48.810;9.282;2023-03-01T00:44:15;14.80;38.40
1367;DHT22;16877;48.810;9.282;2023-03-01T00:46:43;14.80;38.50
1367;DHT22;16877;48.810;9.282;2023-03-01T00:49:11;14.80;38.50
1367;DHT22;16877;48.810;9.282;2023-03-01T00:51:39;14.80;38.60
1367;DHT22;16877;48.810;9.282;2023-03-01T00:54:08;14.70;38.50
1367;DHT22;16877;48.810;9.282;2023-03-01T00:56:36;14.80;38.50
1367;DHT22;16877;48.810;9.282;2023-03-01T00:59:05;14.80;38.50
1367;DHT22;16877;48.810;9.282;2023-03-01T01:01:33;14.70;38.50
1367;DHT22;16877;48.810;9.282;2023-03-01T01:04:03;14.70;38.50
1367;DHT22;16877;48.810;9.282;2023-03-01T01:06:46;14.70;38.60
1367;DHT22;16877;48.810;9.282;2023-03-01T01:09:16;14.70;38.50
1367;DHT22;16877;48.810;9.282;2023-03-01T01:11:44;14.70;38.60
1367;DHT22;16877;48.810;9.282;2023-03-01T01:14:14;14.70;38.50
1367;DHT22;16877;48.810;9.282;2023-03-01T01:16:51;14.70;38.60
1367;DHT22;16877;48.810;9.282;2023-03-01T01:19:19;14.70;38.50
1367;DHT22;16877;48.810;9.282;2023-03-01T01:21:46;14.70;38.70
1367;DHT22;16877;48.810;9.282;2023-03-01T01:24:14;14.60;38.70
1367;DHT22;16877;48.810;9.282;2023-03-01T01:26:42;14.60;38.80
1367;DHT22;16877;48.810;9.282;2023-03-01T01:29:10;14.60;38.90
1367;DHT22;16877;48.810;9.282;2023-03-01T01:31:41;14.60;38.80
1367;DHT22;16877;48.810;9.282;2023-03-01T01:34:14;14.60;38.80
1367;DHT22;16877;48.810;9.282;2023-03-01T01:36:41;14.60;38.90
1367;DHT22;16877;48.810;9.282;2023-03-01T01:39:10;14.60;38.90
1367;DHT22;16877;48.810;9.282;2023-03-01T01:41:40;14.60;38.80
1367;DHT22;16877;48.810;9.282;2023-03-01T01:44:15;14.50;38.80
1367;DHT22;16877;48.810;9.282;2023-03-01T01:46:46;14.50;38.90
1367;DHT22;16877;48.810;9.282;2023-03-01T01:49:33;14.50;38.90
1367;DHT22;16877;48.810;9.282;2023-03-01T01:52:08;14.50;39.10
1367;DHT22;16877;48.810;9.282;2023-03-01T01:54:41;14.50;39.00
1367;DHT22;16877;48.810;9.282;2023-03-01T01:57:13;14.50;39.00
1367;DHT22;16877;48.810;9.282;2023-03-01T01:59:45;14.50;38.90
1367;DHT22;16877;48.810;9.282;2023-03-01T02:02:16;14.50;39.00
1367;DHT22;16877;48.810;9.282;2023-03-01T02:04:44;14.50;39.00
1367;DHT22;16877;48.810;9.282;2023-03-01T02:07:15;14.50;39.00
1367;DHT22;16877;48.810;9.282;2023-03-01T02:09:46;14.50;38.90
1367;DHT22;16877;48.810;9.282;2023-03-01T02:12:14;14.50;38.90
1367;DHT22;16877;48.810;9.282;2023-03-01T02:14:42;14.50;39.00
1367;DHT22;16877;48.810;9.282;2023-03-01T02:17:10;14.50;38.80
1367;DHT22;16877;48.810;9.282;2023-03-01T02:19:51;14.50;39.10
1367;DHT22;16877;48.810;9.282;2023-03-01T02:22:37;14.50;39.00
1367;DHT22;16877;48.810;9.282;2023-03-01T02:25:22;14.50;39.00
1367;DHT22;16877;48.810;9.282;2023-03-01T02:27:53;14.50;39.10
1367;DHT22;16877;48.810;9.282;2023-03-01T02:30:25;14.50;39.10
1367;DHT22;16877;48.810;9.282;2023-03-01T02:32:55;14.50;39.10
1367;DHT22;16877;48.810;9.282;2023-03-01T02:35:29;14.50;39.20
1367;DHT22;16877;48.810;9.282;2023-03-01T02:38:00;14.50;39.30
1367;DHT22;16877;48.810;9.282;2023-03-01T02:40:29;14.50;39.20
1367;DHT22;16877;48.810;9.282;2023-03-01T02:42:59;14.50;39.30
1367;DHT22;16877;48.810;9.282;2023-03-01T02:45:28;14.60;39.30
1367;DHT22;16877;48.810;9.282;2023-03-01T02:47:55;14.50;39.10
1367;DHT22;16877;48.810;9.282;2023-03-01T02:50:42;14.60;39.10
1367;DHT22;16877;48.810;9.282;2023-03-01T02:53:15;14.50;39.20
1367;DHT22;16877;48.810;9.282;2023-03-01T02:55:44;14.60;39.20
1367;DHT22;16877;48.810;9.282;2023-03-01T02:58:12;14.60;39.10
1367;DHT22;16877;48.810;9.282;2023-03-01T03:00:42;14.60;39.10
1367;DHT22;16877;48.810;9.282;2023-03-01T03:03:13;14.60;39.10
1367;DHT22;16877;48.810;9.282;2023-03-01T03:05:41;14.60;39.10
1367;DHT22;16877;48.810;9.282;2023-03-01T03:08:09;14.60;39.10
1367;DHT22;16877;48.810;9.282;2023-03-01T03:10:39;14.60;39.10
1367;DHT22;16877;48.810;9.282;2023-03-01T03:13:07;14.60;39.10
1367;DHT22;16877;48.810;9.282;2023-03-01T03:15:35;14.60;39.10
1367;DHT22;16877;48.810;9.282;2023-03-01T03:18:07;14.60;39.10
1367;DHT22;16877;48.810;9.282;2023-03-01T03:20:36;14.60;39.10
1367;DHT22;16877;48.810;9.282;2023-03-01T03:23:05;14.60;39.10
1367;DHT22;16877;48.810;9.282;2023-03-01T03:25:34;14.60;39.20
1367;DHT22;16877;48.810;9.282;2023-03-01T03:28:04;14.60;39.10
1367;DHT22;16877;48.810;9.282;2023-03-01T03:30:36;14.60;39.00
1367;DHT22;16877;48.810;9.282;2023-03-01T03:33:06;14.60;39.10
1367;DHT22;16877;48.810;9.282;2023-03-01T03:35:38;14.60;39.10
1367;DHT22;16877;48.810;9.282;2023-03-01T03:38:08;14.60;39.10
1367;DHT22;16877;48.810;9.282;2023-03-01T03:40:42;14.70;39.10
1367;DHT22;16877;48.810;9.282;2023-03-01T03:43:11;14.60;39.10
1367;DHT22;16877;48.810;9.282;2023-03-01T03:45:39;14.60;39.10
1367;DHT22;16877;48.810;9.282;2023-03-01T03:48:09;14.60;39.00
1367;DHT22;16877;48.810;9.282;2023-03-01T03:50:37;14.60;39.00
1367;DHT22;16877;48.810;9.282;2023-03-01T03:53:08;14.60;39.00
1367;DHT22;16877;48.810;9.282;2023-03-01T03:55:35;14.70;39.00
1367;DHT22;16877;48.810;9.282;2023-03-01T03:58:05;14.60;39.00
1367;DHT22;16877;48.810;9.282;2023-03-01T04:00:34;14.70;39.00
1367;DHT22;16877;48.810;9.282;2023-03-01T04:03:02;14.60;39.00
1367;DHT22;16877;48.810;9.282;2023-03-01T04:05:31;14.60;39.00
1367;DHT22;16877;48.810;9.282;2023-03-01T04:07:59;14.60;39.00
1367;DHT22;16877;48.810;9.282;2023-03-01T04:10:34;14.60;39.10
1367;DHT22;16877;48.810;9.282;2023-03-01T04:13:02;14.60;39.10
1367;DHT22;16877;48.810;9.282;2023-03-01T04:15:31;14.60;39.00
1367;DHT22;16877;48.810;9.282;2023-03-01T04:18:00;14.70;39.10
1367;DHT22;16877;48.810;9.282;2023-03-01T04:20:32;14.70;39.20
1367;DHT22;16877;48.810;9.282;2023-03-01T04:23:02;14.70;39.20
1367;DHT22;16877;48.810;9.282;2023-03-01T04:25:37;14.70;39.20
1367;DHT22;16877;48.810;9.282;2023-03-01T04:28:04;14.60;39.10
1367;DHT22;16877;48.810;9.282;2023-03-01T04:30:31;14.60;39.10
1367;DHT22;16877;48.810;9.282;2023-03-01T04:33:03;14.60;39.10
1367;DHT22;16877;48.810;9.282;2023-03-01T04:35:32;14.60;39.20
1367;DHT22;16877;48.810;9.282;2023-03-01T04:38:00;14.60;39.20
1367;DHT22;16877;48.810;9.282;2023-03-01T04:40:27;14.60;39.40
1367;DHT22;16877;48.810;9.282;2023-03-01T04:42:55;14.60;39.40
1367;DHT22;16877;48.810;9.282;2023-03-01T04:45:22;14.70;39.40
1367;DHT22;16877;48.810;9.282;2023-03-01T04:47:50;14.70;39.40
1367;DHT22;16877;48.810;9.282;2023-03-01T04:50:19;14.60;39.40
1367;DHT22;16877;48.810;9.282;2023-03-01T04:52:51;14.60;39.40
1367;DHT22;16877;48.810;9.282;2023-03-01T04:55:19;14.60;39.40
1367;DHT22;16877;48.810;9.282;2023-03-01T04:57:47;14.60;39.50
1367;DHT22;16877;48.810;9.282;2023-03-01T05:00:16;14.60;39.50
1367;DHT22;16877;48.810;9.282;2023-03-01T05:02:50;14.70;39.50
1367;DHT22;16877;48.810;9.282;2023-03-01T05:05:23;14.60;39.50
1367;DHT22;16877;48.810;9.282;2023-03-01T05:07:53;14.60;39.50
1367;DHT22;16877;48.810;9.282;2023-03-01T05:10:23;14.60;39.60
1367;DHT22;16877;48.810;9.282;2023-03-01T05:12:55;14.60;39.60
1367;DHT22;16877;48.810;9.282;2023-03-01T05:15:23;14.60;39.50
1367;DHT22;16877;48.810;9.282;2023-03-01T05:17:51;14.60;39.70
1367;DHT22;16877;48.810;9.282;2023-03-01T05:20:20;14.60;39.60
1367;DHT22;16877;48.810;9.282;2023-03-01T05:22:49;14.60;39.60
1367;DHT22;16877;48.810;9.282;2023-03-01T05:25:19;14.70;39.90
1367;DHT22;16877;48.810;9.282;2023-03-01T05:27:47;14.60;39.70
1367;DHT22;16877;48.810;9.282;2023-03-01T05:30:16;14.60;39.70
1367;DHT22;16877;48.810;9.282;2023-03-01T05:32:45;14.60;39.70
1367;DHT22;16877;48.810;9.282;2023-03-01T05:35:15;14.60;39.60
1367;DHT22;16877;48.810;9.282;2023-03-01T05:37:44;14.60;39.70
1367;DHT22;16877;48.810;9.282;2023-03-01T05:40:14;14.60;39.60
1367;DHT22;16877;48.810;9.282;2023-03-01T05:42:45;14.60;39.70
1367;DHT22;16877;48.810;9.282;2023-03-01T05:45:14;14.60;39.70
1367;DHT22;16877;48.810;9.282;2023-03-01T05:47:44;14.60;39.70
1367;DHT22;16877;48.810;9.282;2023-03-01T05:50:13;14.60;39.70
1367;DHT22;16877;48.810;9.282;2023-03-01T05:52:44;14.60;39.70
1367;DHT22;16877;48.810;9.282;2023-03-01T05:55:12;14.60;39.70
1367;DHT22;16877;48.810;9.282;2023-03-01T05:57:40;14.60;39.70
1367;DHT22;16877;48.810;9.282;2023-03-01T06:00:13;14.60;39.70
1367;DHT22;16877;48.810;9.282;2023-03-01T06:02:41;14.60;39.60
1367;DHT22;16877;48.810;9.282;2023-03-01T06:05:10;14.60;39.60
1367;DHT22;16877;48.810;9.282;2023-03-01T06:07:37;14.60;39.70
1367;DHT22;16877;48.810;9.282;2023-03-01T06:10:11;14.60;39.70
1367;DHT22;16877;48.810;9.282;2023-03-01T06:12:42;14.60;39.70
1367;DHT22;16877;48.810;9.282;2023-03-01T06:15:13;14.60;39.70
1367;DHT22;16877;48.810;9.282;2023-03-01T06:17:42;14.60;39.80
1367;DHT22;16877;48.810;9.282;2023-03-01T06:20:15;14.60;39.80
1367;DHT22;16877;48.810;9.282;2023-03-01T06:22:44;14.60;39.80
1367;DHT22;16877;48.810;9.282;2023-03-01T06:25:12;14.60;40.10
1367;DHT22;16877;48.810;9.282;2023-03-01T06:27:40;14.50;40.00
1367;DHT22;16877;48.810;9.282;2023-03-01T06:30:09;14.50;40.00
1367;DHT22;16877;48.810;9.282;2023-03-01T06:32:39;14.50;39.90
1367;DHT22;16877;48.810;9.282;2023-03-01T06:35:08;14.50;39.80
1367;DHT22;16877;48.810;9.282;2023-03-01T06:37:36;14.50;39.80
1367;DHT22;16877;48.810;9.282;2023-03-01T06:40:04;14.50;39.90
1367;DHT22;16877;48.810;9.282;2023-03-01T06:42:34;14.60;40.00
1367;DHT22;16877;48.810;9.282;2023-03-01T06:45:01;14.60;39.90
1367;DHT22;16877;48.810;9.282;2023-03-01T06:47:28;14.60;39.90
1367;DHT22;16877;48.810;9.282;2023-03-01T06:49:58;14.70;39.90
1367;DHT22;16877;48.810;9.282;2023-03-01T06:52:26;14.70;39.80
1367;DHT22;16877;48.810;9.282;2023-03-01T06:54:53;14.70;39.80
1367;DHT22;16877;48.810;9.282;2023-03-01T06:57:35;14.80;39.90
1367;DHT22;16877;48.810;9.282;2023-03-01T07:00:03;14.80;39.90
1367;DHT22;16877;48.810;9.282;2023-03-01T07:02:30;14.90;40.00
1367;DHT22;16877;48.810;9.282;2023-03-01T07:04:59;14.90;39.90
1367;DHT22;16877;48.810;9.282;2023-03-01T07:07:27;15.00;39.90
1367;DHT22;16877;48.810;9.282;2023-03-01T07:09:57;15.00;40.30
1367;DHT22;16877;48.810;9.282;2023-03-01T07:12:24;15.10;39.70
1367;DHT22;16877;48.810;9.282;2023-03-01T07:14:52;15.10;39.60
1367;DHT22;16877;48.810;9.282;2023-03-01T07:17:19;15.20;39.60
1367;DHT22;16877;48.810;9.282;2023-03-01T07:19:47;15.30;39.60
1367;DHT22;16877;48.810;9.282;2023-03-01T07:22:30;15.40;39.50
1367;DHT22;16877;48.810;9.282;2023-03-01T07:24:58;15.40;39.50
1367;DHT22;16877;48.810;9.282;2023-03-01T07:27:29;15.50;39.40
1367;DHT22;16877;48.810;9.282;2023-03-01T07:29:56;15.60;39.40
1367;DHT22;16877;48.810;9.282;2023-03-01T07:32:24;15.70;39.30
1367;DHT22;16877;48.810;9.282;2023-03-01T07:34:52;15.80;39.30
1367;DHT22;16877;48.810;9.282;2023-03-01T07:37:19;15.90;39.20
1367;DHT22;16877;48.810;9.282;2023-03-01T07:39:49;16.00;39.20
1367;DHT22;16877;48.810;9.282;2023-03-01T07:42:16;16.10;39.20
1367;DHT22;16877;48.810;9.282;2023-03-01T07:44:44;16.20;39.10
1367;DHT22;16877;48.810;9.282;2023-03-01T07:47:12;16.30;39.10
1367;DHT22;16877;48.810;9.282;2023-03-01T07:49:43;16.40;39.10
1367;DHT22;16877;48.810;9.282;2023-03-01T07:52:14;16.60;42.90
1367;DHT22;16877;48.810;9.282;2023-03-01T07:54:43;17.40;52.70
1367;DHT22;16877;48.810;9.282;2023-03-01T07:57:11;18.30;52.70
1367;DHT22;16877;48.810;9.282;2023-03-01T07:59:39;19.10;51.80
1367;DHT22;16877;48.810;9.282;2023-03-01T08:02:07;19.60;50.60
1367;DHT22;16877;48.810;9.282;2023-03-01T08:04:35;20.20;49.90
1367;DHT22;16877;48.810;9.282;2023-03-01T08:07:04;20.50;48.90
1367;DHT22;16877;48.810;9.282;2023-03-01T08:09:34;20.60;47.60
1367;DHT22;16877;48.810;9.282;2023-03-01T08:12:02;20.50;46.00
1367;DHT22;16877;48.810;9.282;2023-03-01T08:14:31;20.60;45.00
1367;DHT22;16877;48.810;9.282;2023-03-01T08:16:59;20.50;44.20
1367;DHT22;16877;48.810;9.282;2023-03-01T08:19:29;20.60;43.60
1367;DHT22;16877;48.810;9.282;2023-03-01T08:21:56;20.60;43.40
1367;DHT22;16877;48.810;9.282;2023-03-01T08:24:28;20.60;42.90
1367;DHT22;16877;48.810;9.282;2023-03-01T08:26:56;20.60;42.30
1367;DHT22;16877;48.810;9.282;2023-03-01T08:29:23;20.60;41.90
1367;DHT22;16877;48.810;9.282;2023-03-01T08:31:54;20.60;41.60
1367;DHT22;16877;48.810;9.282;2023-03-01T08:34:25;20.70;40.60
1367;DHT22;16877;48.810;9.282;2023-03-01T08:36:52;20.70;39.80
1367;DHT22;16877;48.810;9.282;2023-03-01T08:39:20;20.70;39.80
1367;DHT22;16877;48.810;9.282;2023-03-01T08:41:48;20.70;39.50
1367;DHT22;16877;48.810;9.282;2023-03-01T08:44:16;20.80;39.40
1367;DHT22;16877;48.810;9.282;2023-03-01T08:46:44;20.90;39.40
1367;DHT22;16877;48.810;9.282;2023-03-01T08:49:16;20.90;39.10
1367;DHT22;16877;48.810;9.282;2023-03-01T08:51:44;21.00;38.90
1367;DHT22;16877;48.810;9.282;2023-03-01T08:54:17;21.10;38.70
1367;DHT22;16877;48.810;9.282;2023-03-01T08:56:45;21.30;38.70
1367;DHT22;16877;48.810;9.282;2023-03-01T08:59:14;21.40;38.70
1367;DHT22;16877;48.810;9.282;2023-03-01T09:01:42;21.50;38.30
1367;DHT22;16877;48.810;9.282;2023-03-01T09:04:10;21.70;38.00
1367;DHT22;16877;48.810;9.282;2023-03-01T09:06:39;21.90;37.90
1367;DHT22;16877;48.810;9.282;2023-03-01T09:09:13;22.00;37.50
1367;DHT22;16877;48.810;9.282;2023-03-01T09:11:41;22.10;37.30
1367;DHT22;16877;48.810;9.282;2023-03-01T09:14:11;22.30;37.20
1367;DHT22;16877;48.810;9.282;2023-03-01T09:16:38;22.40;36.90
1367;DHT22;16877;48.810;9.282;2023-03-01T09:19:06;22.60;37.00
1367;DHT22;16877;48.810;9.282;2023-03-01T09:21:33;22.80;36.80
1367;DHT22;16877;48.810;9.282;2023-03-01T09:24:02;23.00;36.60
1367;DHT22;16877;48.810;9.282;2023-03-01T09:26:30;23.10;36.60
1367;DHT22;16877;48.810;9.282;2023-03-01T09:28:57;23.30;36.10
1367;DHT22;16877;48.810;9.282;2023-03-01T09:31:29;23.50;36.00
1367;DHT22;16877;48.810;9.282;2023-03-01T09:33:56;23.70;35.70
1367;DHT22;16877;48.810;9.282;2023-03-01T09:36:24;23.90;35.60
1367;DHT22;16877;48.810;9.282;2023-03-01T09:38:52;24.10;35.50
1367;DHT22;16877;48.810;9.282;2023-03-01T09:41:46;24.30;35.30
1367;DHT22;16877;48.810;9.282;2023-03-01T09:44:20;24.50;35.00
1367;DHT22;16877;48.810;9.282;2023-03-01T09:46:49;24.60;35.00
1367;DHT22;16877;48.810;9.282;2023-03-01T09:49:19;24.80;34.90
1367;DHT22;16877;48.810;9.282;2023-03-01T09:51:57;24.90;35.10
1367;DHT22;16877;48.810;9.282;2023-03-01T09:54:25;25.00;34.20
1367;DHT22;16877;48.810;9.282;2023-03-01T09:57:02;25.20;34.20
1367;DHT22;16877;48.810;9.282;2023-03-01T09:59:42;25.40;34.00
1367;DHT22;16877;48.810;9.282;2023-03-01T10:02:23;25.50;33.90
1367;DHT22;16877;48.810;9.282;2023-03-01T10:04:55;25.70;34.00
1367;DHT22;16877;48.810;9.282;2023-03-01T10:07:43;25.90;33.70
1367;DHT22;16877;48.810;9.282;2023-03-01T10:10:26;26.10;33.70
1367;DHT22;16877;48.810;9.282;2023-03-01T10:12:57;26.30;33.60
1367;DHT22;16877;48.810;9.282;2023-03-01T10:15:34;26.50;33.70
1367;DHT22;16877;48.810;9.282;2023-03-01T10:18:04;26.70;33.00
1367;DHT22;16877;48.810;9.282;2023-03-01T10:20:41;26.90;32.70
1367;DHT22;16877;48.810;9.282;2023-03-01T10:23:19;27.10;32.80
1367;DHT22;16877;48.810;9.282;2023-03-01T10:26:01;27.20;32.50
1367;DHT22;16877;48.810;9.282;2023-03-01T10:28:44;27.40;32.30
1367;DHT22;16877;48.810;9.282;2023-03-01T10:31:17;27.50;32.10
1367;DHT22;16877;48.810;9.282;2023-03-01T10:33:45;27.70;32.20
1367;DHT22;16877;48.810;9.282;2023-03-01T10:36:20;27.90;32.30
1367;DHT22;16877;48.810;9.282;2023-03-01T10:38:49;28.10;32.50
1367;DHT22;16877;48.810;9.282;2023-03-01T10:41:20;28.30;32.10
1367;DHT22;16877;48.810;9.282;2023-03-01T10:43:53;28.40;32.40
1367;DHT22;16877;48.810;9.282;2023-03-01T10:46:25;28.70;32.00
1367;DHT22;16877;48.810;9.282;2023-03-01T10:49:07;28.90;31.80
1367;DHT22;16877;48.810;9.282;2023-03-01T10:51:38;29.00;31.60
1367;DHT22;16877;48.810;9.282;2023-03-01T10:54:16;29.20;31.40
1367;DHT22;16877;48.810;9.282;2023-03-01T10:56:50;29.40;31.20
1367;DHT22;16877;48.810;9.282;2023-03-01T10:59:26;29.60;31.30
1367;DHT22;16877;48.810;9.282;2023-03-01T11:02:15;29.80;31.30
1367;DHT22;16877;48.810;9.282;2023-03-01T11:05:00;30.00;30.90
1367;DHT22;16877;48.810;9.282;2023-03-01T11:07:27;30.20;30.90
1367;DHT22;16877;48.810;9.282;2023-03-01T11:09:55;30.30;30.20
1367;DHT22;16877;48.810;9.282;2023-03-01T11:12:24;30.50;30.20
1367;DHT22;16877;48.810;9.282;2023-03-01T11:14:57;30.60;30.00
1367;DHT22;16877;48.810;9.282;2023-03-01T11:17:29;30.80;29.80
1367;DHT22;16877;48.810;9.282;2023-03-01T11:20:03;30.90;29.50
1367;DHT22;16877;48.810;9.282;2023-03-01T11:22:33;31.10;29.40
1367;DHT22;16877;48.810;9.282;2023-03-01T11:25:01;31.30;29.40
1367;DHT22;16877;48.810;9.282;2023-03-01T11:27:31;31.40;29.50
1367;DHT22;16877;48.810;9.282;2023-03-01T11:30:06;31.60;29.60
1367;DHT22;16877;48.810;9.282;2023-03-01T11:32:40;31.70;29.30
1367;DHT22;16877;48.810;9.282;2023-03-01T11:35:16;31.90;29.20
1367;DHT22;16877;48.810;9.282;2023-03-01T11:37:53;32.10;29.30
1367;DHT22;16877;48.810;9.282;2023-03-01T11:40:25;32.10;29.20
1367;DHT22;16877;48.810;9.282;2023-03-01T11:43:02;32.30;29.10
1367;DHT22;16877;48.810;9.282;2023-03-01T11:45:43;32.40;28.90
1367;DHT22;16877;48.810;9.282;2023-03-01T11:48:43;32.50;28.90
1367;DHT22;16877;48.810;9.282;2023-03-01T11:51:20;32.60;28.90
1367;DHT22;16877;48.810;9.282;2023-03-01T11:54:03;32.80;28.80
1367;DHT22;16877;48.810;9.282;2023-03-01T11:56:38;32.90;28.90
1367;DHT22;16877;48.810;9.282;2023-03-01T11:59:26;33.00;28.70
1367;DHT22;16877;48.810;9.282;2023-03-01T12:02:27;33.10;28.60
1367;DHT22;16877;48.810;9.282;2023-03-01T12:07:53;33.30;28.50
1367;DHT22;16877;48.810;9.282;2023-03-01T12:10:27;33.40;28.60
1367;DHT22;16877;48.810;9.282;2023-03-01T12:13:26;33.50;28.30
1367;DHT22;16877;48.810;9.282;2023-03-01T12:19:24;33.60;30.30
1367;DHT22;16877;48.810;9.282;2023-03-01T12:22:13;33.60;30.60
1367;DHT22;16877;48.810;9.282;2023-03-01T12:24:59;33.80;31.70
1367;DHT22;16877;48.810;9.282;2023-03-01T12:28:02;33.80;31.20
1367;DHT22;16877;48.810;9.282;2023-03-01T12:30:59;33.90;30.90
1367;DHT22;16877;48.810;9.282;2023-03-01T12:33:38;34.00;30.90
1367;DHT22;16877;48.810;9.282;2023-03-01T12:39:28;34.10;30.80
1367;DHT22;16877;48.810;9.282;2023-03-01T12:42:21;34.20;30.90
1367;DHT22;16877;48.810;9.282;2023-03-01T12:45:05;34.20;30.90
1367;DHT22;16877;48.810;9.282;2023-03-01T12:48:08;34.20;30.20
1367;DHT22;16877;48.810;9.282;2023-03-01T12:50:43;34.30;30.10
1367;DHT22;16877;48.810;9.282;2023-03-01T12:53:32;34.30;30.20
1367;DHT22;16877;48.810;9.282;2023-03-01T12:56:07;34.40;30.30
1367;DHT22;16877;48.810;9.282;2023-03-01T12:58:39;34.40;30.30
1367;DHT22;16877;48.810;9.282;2023-03-01T13:01:19;34.40;30.10
1367;DHT22;16877;48.810;9.282;2023-03-01T13:04:03;34.40;30.40
1367;DHT22;16877;48.810;9.282;2023-03-01T13:06:55;34.40;30.10
1367;DHT22;16877;48.810;9.282;2023-03-01T13:09:30;34.50;30.20
1367;DHT22;16877;48.810;9.282;2023-03-01T13:12:00;34.60;29.90
1367;DHT22;16877;48.810;9.282;2023-03-01T13:14:45;34.60;29.90
1367;DHT22;16877;48.810;9.282;2023-03-01T13:17:33;34.60;29.90
1367;DHT22;16877;48.810;9.282;2023-03-01T13:20:13;34.60;29.90
1367;DHT22;16877;48.810;9.282;2023-03-01T13:22:41;34.70;29.90
1367;DHT22;16877;48.810;9.282;2023-03-01T13:25:16;34.70;29.80
1367;DHT22;16877;48.810;9.282;2023-03-01T13:27:45;34.70;29.40
1367;DHT22;16877;48.810;9.282;2023-03-01T13:30:38;34.70;29.00
1367;DHT22;16877;48.810;9.282;2023-03-01T13:33:38;34.70;28.90
1367;DHT22;16877;48.810;9.282;2023-03-01T13:36:08;34.70;28.80
1367;DHT22;16877;48.810;9.282;2023-03-01T13:38:45;34.70;28.90
1367;DHT22;16877;48.810;9.282;2023-03-01T13:41:16;34.70;28.70
1367;DHT22;16877;48.810;9.282;2023-03-01T13:43:46;34.70;28.80
1367;DHT22;16877;48.810;9.282;2023-03-01T13:46:17;34.70;28.70
1367;DHT22;16877;48.810;9.282;2023-03-01T13:48:50;34.70;28.80
1367;DHT22;16877;48.810;9.282;2023-03-01T13:51:22;34.60;28.40
1367;DHT22;16877;48.810;9.282;2023-03-01T13:53:51;34.60;28.70
1367;DHT22;16877;48.810;9.282;2023-03-01T13:56:24;34.60;28.90
1367;DHT22;16877;48.810;9.282;2023-03-01T13:58:54;34.60;28.90
1367;DHT22;16877;48.810;9.282;2023-03-01T14:01:40;34.60;29.00
1367;DHT22;16877;48.810;9.282;2023-03-01T14:04:20;34.50;28.80
1367;DHT22;16877;48.810;9.282;2023-03-01T14:06:49;34.50;28.50
1367;DHT22;16877;48.810;9.282;2023-03-01T14:09:21;34.50;28.40
1367;DHT22;16877;48.810;9.282;2023-03-01T14:12:12;34.40;28.90
1367;DHT22;16877;48.810;9.282;2023-03-01T14:14:46;34.40;28.50
1367;DHT22;16877;48.810;9.282;2023-03-01T14:17:32;34.40;28.70
1367;DHT22;16877;48.810;9.282;2023-03-01T14:20:07;34.40;28.50
1367;DHT22;16877;48.810;9.282;2023-03-01T14:22:36;34.30;28.70
1367;DHT22;16877;48.810;9.282;2023-03-01T14:25:06;34.30;28.90
1367;DHT22;16877;48.810;9.282;2023-03-01T14:27:54;34.20;29.00
1367;DHT22;16877;48.810;9.282;2023-03-01T14:30:24;34.20;29.10
1367;DHT22;16877;48.810;9.282;2023-03-01T14:32:55;34.20;29.20
1367;DHT22;16877;48.810;9.282;2023-03-01T14:35:24;34.20;29.20
1367;DHT22;16877;48.810;9.282;2023-03-01T14:37:52;34.10;29.20
1367;DHT22;16877;48.810;9.282;2023-03-01T14:40:23;34.10;29.30
1367;DHT22;16877;48.810;9.282;2023-03-01T14:42:53;34.00;29.30
1367;DHT22;16877;48.810;9.282;2023-03-01T14:45:23;34.00;29.30
1367;DHT22;16877;48.810;9.282;2023-03-01T14:47:52;34.00;29.40
1367;DHT22;16877;48.810;9.282;2023-03-01T14:50:24;33.90;29.50
1367;DHT22;16877;48.810;9.282;2023-03-01T14:52:54;33.80;29.40
1367;DHT22;16877;48.810;9.282;2023-03-01T14:55:26;33.80;29.40
1367;DHT22;16877;48.810;9.282;2023-03-01T14:57:57;33.70;29.50
1367;DHT22;16877;48.810;9.282;2023-03-01T15:00:27;33.70;29.50
1367;DHT22;16877;48.810;9.282;2023-03-01T15:02:56;33.70;29.50
1367;DHT22;16877;48.810;9.282;2023-03-01T15:05:29;33.60;29.60
1367;DHT22;16877;48.810;9.282;2023-03-01T15:07:57;33.50;29.70
1367;DHT22;16877;48.810;9.282;2023-03-01T15:10:27;33.40;29.80
1367;DHT22;16877;48.810;9.282;2023-03-01T15:13:09;33.40;29.90
1367;DHT22;16877;48.810;9.282;2023-03-01T15:15:38;33.30;30.00
1367;DHT22;16877;48.810;9.282;2023-03-01T15:18:16;33.20;30.10
1367;DHT22;16877;48.810;9.282;2023-03-01T15:20:45;33.10;30.40
1367;DHT22;16877;48.810;9.282;2023-03-01T15:23:21;33.00;30.30
1367;DHT22;16877;48.810;9.282;2023-03-01T15:25:50;32.90;30.60
1367;DHT22;16877;48.810;9.282;2023-03-01T15:28:26;32.80;30.60
1367;DHT22;16877;48.810;9.282;2023-03-01T15:30:58;32.70;30.80
1367;DHT22;16877;48.810;9.282;2023-03-01T15:33:33;32.60;31.10
1367;DHT22;16877;48.810;9.282;2023-03-01T15:36:02;32.60;31.10
1367;DHT22;16877;48.810;9.282;2023-03-01T15:38:33;32.40;31.30
1367;DHT22;16877;48.810;9.282;2023-03-01T15:41:05;32.40;31.60
1367;DHT22;16877;48.810;9.282;2023-03-01T15:43:50;32.20;31.70
1367;DHT22;16877;48.810;9.282;2023-03-01T15:46:28;32.10;31.90
1367;DHT22;16877;48.810;9.282;2023-03-01T15:48:58;32.00;32.10
1367;DHT22;16877;48.810;9.282;2023-03-01T15:51:32;31.80;32.00
1367;DHT22;16877;48.810;9.282;2023-03-01T15:54:03;31.70;32.10
1367;DHT22;16877;48.810;9.282;2023-03-01T15:56:32;31.60;32.20
1367;DHT22;16877;48.810;9.282;2023-03-01T15:59:02;31.40;32.20
1367;DHT22;16877;48.810;9.282;2023-03-01T16:01:30;31.30;32.10
1367;DHT22;16877;48.810;9.282;2023-03-01T16:03:59;31.10;32.10
1367;DHT22;16877;48.810;9.282;2023-03-01T16:06:27;31.00;32.00
1367;DHT22;16877;48.810;9.282;2023-03-01T16:08:55;30.90;32.00
1367;DHT22;16877;48.810;9.282;2023-03-01T16:11:33;30.70;32.40
1367;DHT22;16877;48.810;9.282;2023-03-01T16:14:03;30.50;32.70
1367;DHT22;16877;48.810;9.282;2023-03-01T16:16:32;30.30;32.90
1367;DHT22;16877;48.810;9.282;2023-03-01T16:19:06;30.10;33.40
1367;DHT22;16877;48.810;9.282;2023-03-01T16:21:36;29.90;33.70
1367;DHT22;16877;48.810;9.282;2023-03-01T16:24:05;29.80;33.80
1367;DHT22;16877;48.810;9.282;2023-03-01T16:26:33;29.60;34.10